Terminal Aerodrome Forecast
Issued by NWS Melbourne, FL

Home | Current Version | Previous Version | Text Only | Print | Product List | Glossary On
Versions: 1 2 3 4 5 6 7 8 9 10 11 12 13 14 15 16 17
000
FTUS42 KMLB 202300
TAFMLB
TAF
KMLB 202326Z 2100/2124 35006KT P6SM BKN250
     FM211400 03012KT P6SM SCT040 SCT250
     FM211800 05012G19KT P6SM BKN040=

USA.gov is the U.S. government's official web portal to all federal, state and local government web resources and services.